sensor_id;sensor_type;location;lat;lon;timestamp;temperature;humidity
4739;DHT22;2383;48.632;10.156;2024-03-22T00:02:25;6.80;97.50
4739;DHT22;2383;48.632;10.156;2024-03-22T00:06:26;6.90;97.70
4739;DHT22;2383;48.632;10.156;2024-03-22T00:10:27;6.70;97.50
4739;DHT22;2383;48.632;10.156;2024-03-22T00:14:28;6.60;97.50
4739;DHT22;2383;48.632;10.156;2024-03-22T00:18:30;6.60;97.40
4739;DHT22;2383;48.632;10.156;2024-03-22T00:22:31;6.70;97.50
4739;DHT22;2383;48.632;10.156;2024-03-22T00:26:32;6.50;97.50
4739;DHT22;2383;48.632;10.156;2024-03-22T00:30:33;6.40;97.30
4739;DHT22;2383;48.632;10.156;2024-03-22T00:34:35;6.20;97.70
4739;DHT22;2383;48.632;10.156;2024-03-22T00:38:36;6.50;97.90
4739;DHT22;2383;48.632;10.156;2024-03-22T00:42:37;6.20;98.00
4739;DHT22;2383;48.632;10.156;2024-03-22T00:46:38;6.30;97.90
4739;DHT22;2383;48.632;10.156;2024-03-22T00:50:40;6.30;97.80
4739;DHT22;2383;48.632;10.156;2024-03-22T00:54:41;6.70;97.90
4739;DHT22;2383;48.632;10.156;2024-03-22T00:58:42;6.50;97.90
4739;DHT22;2383;48.632;10.156;2024-03-22T01:02:43;6.60;97.90
4739;DHT22;2383;48.632;10.156;2024-03-22T01:06:45;6.30;97.70
4739;DHT22;2383;48.632;10.156;2024-03-22T01:10:49;6.10;97.70
4739;DHT22;2383;48.632;10.156;2024-03-22T01:14:50;6.00;97.70
4739;DHT22;2383;48.632;10.156;2024-03-22T01:18:51;6.00;97.50
4739;DHT22;2383;48.632;10.156;2024-03-22T01:22:52;6.20;97.70
4739;DHT22;2383;48.632;10.156;2024-03-22T01:26:54;5.80;97.60
4739;DHT22;2383;48.632;10.156;2024-03-22T01:30:56;5.80;97.40
4739;DHT22;2383;48.632;10.156;2024-03-22T01:34:57;5.70;97.60
4739;DHT22;2383;48.632;10.156;2024-03-22T01:38:58;5.70;97.70
4739;DHT22;2383;48.632;10.156;2024-03-22T01:43:00;5.40;97.70
4739;DHT22;2383;48.632;10.156;2024-03-22T01:47:02;5.20;98.10
4739;DHT22;2383;48.632;10.156;2024-03-22T01:51:05;5.30;97.90
4739;DHT22;2383;48.632;10.156;2024-03-22T01:55:07;4.60;97.90
4739;DHT22;2383;48.632;10.156;2024-03-22T01:59:08;4.50;98.20
4739;DHT22;2383;48.632;10.156;2024-03-22T02:03:09;4.80;98.60
4739;DHT22;2383;48.632;10.156;2024-03-22T02:07:11;4.90;98.50
4739;DHT22;2383;48.632;10.156;2024-03-22T02:11:12;5.00;98.20
4739;DHT22;2383;48.632;10.156;2024-03-22T02:15:14;5.30;98.00
4739;DHT22;2383;48.632;10.156;2024-03-22T02:19:16;5.10;97.80
4739;DHT22;2383;48.632;10.156;2024-03-22T02:23:17;5.10;97.60
4739;DHT22;2383;48.632;10.156;2024-03-22T02:27:18;5.40;97.50
4739;DHT22;2383;48.632;10.156;2024-03-22T02:31:19;5.50;97.50
4739;DHT22;2383;48.632;10.156;2024-03-22T02:35:21;5.10;97.40
4739;DHT22;2383;48.632;10.156;2024-03-22T02:39:22;5.10;97.30
4739;DHT22;2383;48.632;10.156;2024-03-22T02:43:23;5.50;97.90
4739;DHT22;2383;48.632;10.156;2024-03-22T02:47:24;5.00;97.50
4739;DHT22;2383;48.632;10.156;2024-03-22T02:51:25;5.00;97.60
4739;DHT22;2383;48.632;10.156;2024-03-22T02:55:26;5.00;97.60
4739;DHT22;2383;48.632;10.156;2024-03-22T02:59:28;5.00;97.50
4739;DHT22;2383;48.632;10.156;2024-03-22T03:03:29;5.10;97.30
4739;DHT22;2383;48.632;10.156;2024-03-22T03:07:30;5.30;97.40
4739;DHT22;2383;48.632;10.156;2024-03-22T03:11:31;5.00;97.30
4739;DHT22;2383;48.632;10.156;2024-03-22T03:15:32;5.00;97.20
4739;DHT22;2383;48.632;10.156;2024-03-22T03:19:33;5.20;97.50
4739;DHT22;2383;48.632;10.156;2024-03-22T03:23:35;4.80;97.40
4739;DHT22;2383;48.632;10.156;2024-03-22T03:27:36;4.90;97.60
4739;DHT22;2383;48.632;10.156;2024-03-22T03:31:37;4.80;97.60
4739;DHT22;2383;48.632;10.156;2024-03-22T03:35:38;5.10;97.60
4739;DHT22;2383;48.632;10.156;2024-03-22T03:39:39;5.10;97.40
4739;DHT22;2383;48.632;10.156;2024-03-22T03:43:40;4.80;97.20
4739;DHT22;2383;48.632;10.156;2024-03-22T03:47:41;4.90;97.30
4739;DHT22;2383;48.632;10.156;2024-03-22T03:51:43;5.00;97.40
4739;DHT22;2383;48.632;10.156;2024-03-22T03:55:44;5.00;97.40
4739;DHT22;2383;48.632;10.156;2024-03-22T03:59:45;4.40;96.90
4739;DHT22;2383;48.632;10.156;2024-03-22T04:03:48;4.60;97.80
4739;DHT22;2383;48.632;10.156;2024-03-22T04:07:49;3.80;98.40
4739;DHT22;2383;48.632;10.156;2024-03-22T04:11:50;4.40;97.90
4739;DHT22;2383;48.632;10.156;2024-03-22T04:15:52;4.50;97.40
4739;DHT22;2383;48.632;10.156;2024-03-22T04:19:54;4.70;97.30
4739;DHT22;2383;48.632;10.156;2024-03-22T04:23:55;4.80;97.10
4739;DHT22;2383;48.632;10.156;2024-03-22T04:27:56;4.60;97.10
4739;DHT22;2383;48.632;10.156;2024-03-22T04:31:57;4.40;96.90
4739;DHT22;2383;48.632;10.156;2024-03-22T04:35:59;4.60;97.10
4739;DHT22;2383;48.632;10.156;2024-03-22T04:40:00;4.20;97.10
4739;DHT22;2383;48.632;10.156;2024-03-22T04:44:01;4.10;97.20
4739;DHT22;2383;48.632;10.156;2024-03-22T04:48:04;4.50;97.20
4739;DHT22;2383;48.632;10.156;2024-03-22T04:52:05;4.30;97.10
4739;DHT22;2383;48.632;10.156;2024-03-22T04:56:07;4.10;97.20
4739;DHT22;2383;48.632;10.156;2024-03-22T05:00:08;4.40;97.20
4739;DHT22;2383;48.632;10.156;2024-03-22T05:04:10;4.20;97.20
4739;DHT22;2383;48.632;10.156;2024-03-22T05:08:11;4.20;97.10
4739;DHT22;2383;48.632;10.156;2024-03-22T05:12:13;4.20;96.90
4739;DHT22;2383;48.632;10.156;2024-03-22T05:16:14;4.20;97.10
4739;DHT22;2383;48.632;10.156;2024-03-22T05:20:15;4.20;97.30
4739;DHT22;2383;48.632;10.156;2024-03-22T05:24:17;4.20;97.20
4739;DHT22;2383;48.632;10.156;2024-03-22T05:28:18;4.50;97.40
4739;DHT22;2383;48.632;10.156;2024-03-22T05:32:19;4.20;97.30
4739;DHT22;2383;48.632;10.156;2024-03-22T05:36:21;4.60;97.40
4739;DHT22;2383;48.632;10.156;2024-03-22T05:40:22;4.20;97.30
4739;DHT22;2383;48.632;10.156;2024-03-22T05:44:24;4.20;97.40
4739;DHT22;2383;48.632;10.156;2024-03-22T05:48:24;4.30;97.70
4739;DHT22;2383;48.632;10.156;2024-03-22T05:52:27;4.40;97.60
4739;DHT22;2383;48.632;10.156;2024-03-22T05:56:28;4.50;97.50
4739;DHT22;2383;48.632;10.156;2024-03-22T06:00:29;4.50;97.50
4739;DHT22;2383;48.632;10.156;2024-03-22T06:04:31;4.50;97.40
4739;DHT22;2383;48.632;10.156;2024-03-22T06:08:33;4.80;97.70
4739;DHT22;2383;48.632;10.156;2024-03-22T06:12:35;4.70;97.60
4739;DHT22;2383;48.632;10.156;2024-03-22T06:16:37;4.80;97.50
4739;DHT22;2383;48.632;10.156;2024-03-22T06:20:37;4.80;97.50
4739;DHT22;2383;48.632;10.156;2024-03-22T06:24:39;5.10;97.50
4739;DHT22;2383;48.632;10.156;2024-03-22T06:28:40;5.00;97.50
4739;DHT22;2383;48.632;10.156;2024-03-22T06:32:41;5.20;97.90
4739;DHT22;2383;48.632;10.156;2024-03-22T06:36:42;5.30;97.50
4739;DHT22;2383;48.632;10.156;2024-03-22T06:40:45;5.40;97.90
4739;DHT22;2383;48.632;10.156;2024-03-22T06:44:45;5.80;98.10
4739;DHT22;2383;48.632;10.156;2024-03-22T06:48:47;5.80;97.90
4739;DHT22;2383;48.632;10.156;2024-03-22T06:52:48;5.90;97.90
4739;DHT22;2383;48.632;10.156;2024-03-22T06:56:49;6.20;98.00
4739;DHT22;2383;48.632;10.156;2024-03-22T07:00:50;6.00;98.20
4739;DHT22;2383;48.632;10.156;2024-03-22T07:04:51;6.00;98.10
4739;DHT22;2383;48.632;10.156;2024-03-22T07:08:53;6.10;98.20
4739;DHT22;2383;48.632;10.156;2024-03-22T07:12:57;6.20;98.30
4739;DHT22;2383;48.632;10.156;2024-03-22T07:16:58;6.50;98.50
4739;DHT22;2383;48.632;10.156;2024-03-22T07:20:59;6.10;99.00
4739;DHT22;2383;48.632;10.156;2024-03-22T07:25:02;6.50;98.80
4739;DHT22;2383;48.632;10.156;2024-03-22T07:29:03;6.70;98.80
4739;DHT22;2383;48.632;10.156;2024-03-22T07:33:04;7.00;99.00
4739;DHT22;2383;48.632;10.156;2024-03-22T07:37:06;7.00;99.00
4739;DHT22;2383;48.632;10.156;2024-03-22T07:41:07;7.00;99.00
4739;DHT22;2383;48.632;10.156;2024-03-22T07:45:08;7.10;99.20
4739;DHT22;2383;48.632;10.156;2024-03-22T07:49:10;7.20;99.30
4739;DHT22;2383;48.632;10.156;2024-03-22T07:53:10;7.40;99.40
4739;DHT22;2383;48.632;10.156;2024-03-22T07:57:14;7.60;99.40
4739;DHT22;2383;48.632;10.156;2024-03-22T08:01:15;7.70;99.30
4739;DHT22;2383;48.632;10.156;2024-03-22T08:05:18;8.20;99.70
4739;DHT22;2383;48.632;10.156;2024-03-22T08:09:20;8.00;99.50
4739;DHT22;2383;48.632;10.156;2024-03-22T08:13:21;8.20;99.50
4739;DHT22;2383;48.632;10.156;2024-03-22T08:17:22;8.40;99.40
4739;DHT22;2383;48.632;10.156;2024-03-22T08:21:24;8.50;99.90
4739;DHT22;2383;48.632;10.156;2024-03-22T08:25:25;8.70;99.90
4739;DHT22;2383;48.632;10.156;2024-03-22T08:29:26;9.00;99.90
4739;DHT22;2383;48.632;10.156;2024-03-22T08:33:27;9.30;99.90
4739;DHT22;2383;48.632;10.156;2024-03-22T08:37:28;9.50;99.90
4739;DHT22;2383;48.632;10.156;2024-03-22T08:41:29;9.60;99.90
4739;DHT22;2383;48.632;10.156;2024-03-22T08:45:30;10.00;99.90
4739;DHT22;2383;48.632;10.156;2024-03-22T08:49:32;10.00;99.90
4739;DHT22;2383;48.632;10.156;2024-03-22T08:53:33;10.10;99.90
4739;DHT22;2383;48.632;10.156;2024-03-22T08:57:34;10.00;99.90
4739;DHT22;2383;48.632;10.156;2024-03-22T09:01:35;9.40;99.90
4739;DHT22;2383;48.632;10.156;2024-03-22T09:05:36;9.50;99.90
4739;DHT22;2383;48.632;10.156;2024-03-22T09:09:37;9.70;99.20
4739;DHT22;2383;48.632;10.156;2024-03-22T09:13:38;9.80;99.50
4739;DHT22;2383;48.632;10.156;2024-03-22T09:17:39;9.90;99.10
4739;DHT22;2383;48.632;10.156;2024-03-22T09:21:40;9.90;99.30
4739;DHT22;2383;48.632;10.156;2024-03-22T09:25:41;10.10;99.00
4739;DHT22;2383;48.632;10.156;2024-03-22T09:29:42;10.30;99.20
4739;DHT22;2383;48.632;10.156;2024-03-22T09:33:44;10.80;98.90
4739;DHT22;2383;48.632;10.156;2024-03-22T09:37:46;10.70;98.40
4739;DHT22;2383;48.632;10.156;2024-03-22T09:41:47;10.80;98.40
4739;DHT22;2383;48.632;10.156;2024-03-22T09:45:49;10.70;98.30
4739;DHT22;2383;48.632;10.156;2024-03-22T09:49:51;10.50;98.60
4739;DHT22;2383;48.632;10.156;2024-03-22T09:53:52;10.30;98.90
4739;DHT22;2383;48.632;10.156;2024-03-22T09:57:54;10.70;98.10
4739;DHT22;2383;48.632;10.156;2024-03-22T10:01:56;11.00;98.40
4739;DHT22;2383;48.632;10.156;2024-03-22T10:05:59;10.30;98.20
4739;DHT22;2383;48.632;10.156;2024-03-22T10:10:00;10.80;98.40
4739;DHT22;2383;48.632;10.156;2024-03-22T10:14:01;11.10;97.30
4739;DHT22;2383;48.632;10.156;2024-03-22T10:18:04;11.10;97.20
4739;DHT22;2383;48.632;10.156;2024-03-22T10:22:05;11.50;97.10
4739;DHT22;2383;48.632;10.156;2024-03-22T10:26:07;11.20;96.70
4739;DHT22;2383;48.632;10.156;2024-03-22T10:30:12;11.10;96.70
4739;DHT22;2383;48.632;10.156;2024-03-22T10:34:16;10.40;97.40
4739;DHT22;2383;48.632;10.156;2024-03-22T10:38:21;10.90;96.50
4739;DHT22;2383;48.632;10.156;2024-03-22T10:42:22;10.90;96.90
4739;DHT22;2383;48.632;10.156;2024-03-22T10:46:29;11.20;97.20
4739;DHT22;2383;48.632;10.156;2024-03-22T10:50:32;11.20;96.20
4739;DHT22;2383;48.632;10.156;2024-03-22T10:54:39;11.10;96.90
4739;DHT22;2383;48.632;10.156;2024-03-22T10:58:40;11.40;96.50
4739;DHT22;2383;48.632;10.156;2024-03-22T11:02:44;11.40;96.30
4739;DHT22;2383;48.632;10.156;2024-03-22T11:06:49;11.40;95.90
4739;DHT22;2383;48.632;10.156;2024-03-22T11:10:51;12.00;95.90
4739;DHT22;2383;48.632;10.156;2024-03-22T11:14:53;12.20;96.70
4739;DHT22;2383;48.632;10.156;2024-03-22T11:18:54;12.80;95.50
4739;DHT22;2383;48.632;10.156;2024-03-22T11:22:56;13.20;94.80
4739;DHT22;2383;48.632;10.156;2024-03-22T11:26:57;12.80;94.30
4739;DHT22;2383;48.632;10.156;2024-03-22T11:30:58;12.90;95.10
4739;DHT22;2383;48.632;10.156;2024-03-22T11:34:59;13.00;94.50
4739;DHT22;2383;48.632;10.156;2024-03-22T11:39:00;12.40;94.10
4739;DHT22;2383;48.632;10.156;2024-03-22T11:43:02;12.50;93.60
4739;DHT22;2383;48.632;10.156;2024-03-22T11:47:04;13.00;93.20
4739;DHT22;2383;48.632;10.156;2024-03-22T11:51:05;13.40;93.60
4739;DHT22;2383;48.632;10.156;2024-03-22T11:55:07;13.40;93.70
4739;DHT22;2383;48.632;10.156;2024-03-22T11:59:08;13.40;92.70
4739;DHT22;2383;48.632;10.156;2024-03-22T12:03:09;13.30;93.50
4739;DHT22;2383;48.632;10.156;2024-03-22T12:07:16;13.60;92.80
4739;DHT22;2383;48.632;10.156;2024-03-22T12:11:17;13.80;92.90
4739;DHT22;2383;48.632;10.156;2024-03-22T12:15:19;13.20;91.50
4739;DHT22;2383;48.632;10.156;2024-03-22T12:19:20;13.80;92.00
4739;DHT22;2383;48.632;10.156;2024-03-22T12:23:21;13.50;91.60
4739;DHT22;2383;48.632;10.156;2024-03-22T12:27:22;13.30;91.40
4739;DHT22;2383;48.632;10.156;2024-03-22T12:31:23;13.20;91.60
4739;DHT22;2383;48.632;10.156;2024-03-22T12:35:24;13.50;91.10
4739;DHT22;2383;48.632;10.156;2024-03-22T12:39:26;13.40;91.30
4739;DHT22;2383;48.632;10.156;2024-03-22T12:43:27;13.90;91.90
4739;DHT22;2383;48.632;10.156;2024-03-22T12:47:29;14.00;90.30
4739;DHT22;2383;48.632;10.156;2024-03-22T12:51:30;13.80;90.30
4739;DHT22;2383;48.632;10.156;2024-03-22T12:55:31;14.10;90.10
4739;DHT22;2383;48.632;10.156;2024-03-22T12:59:32;14.60;90.50
4739;DHT22;2383;48.632;10.156;2024-03-22T13:03:33;14.50;89.30
4739;DHT22;2383;48.632;10.156;2024-03-22T13:07:34;14.50;88.80
4739;DHT22;2383;48.632;10.156;2024-03-22T13:11:36;14.60;88.80
4739;DHT22;2383;48.632;10.156;2024-03-22T13:15:38;14.80;87.60
4739;DHT22;2383;48.632;10.156;2024-03-22T13:19:40;15.20;87.60
4739;DHT22;2383;48.632;10.156;2024-03-22T13:23:41;15.20;88.30
4739;DHT22;2383;48.632;10.156;2024-03-22T13:27:42;15.40;86.50
4739;DHT22;2383;48.632;10.156;2024-03-22T13:31:43;15.50;89.10
4739;DHT22;2383;48.632;10.156;2024-03-22T13:35:45;15.80;89.50
4739;DHT22;2383;48.632;10.156;2024-03-22T13:39:49;15.80;90.30
4739;DHT22;2383;48.632;10.156;2024-03-22T13:43:50;16.00;90.80
4739;DHT22;2383;48.632;10.156;2024-03-22T13:47:52;16.30;90.00
4739;DHT22;2383;48.632;10.156;2024-03-22T13:51:53;16.20;91.80
4739;DHT22;2383;48.632;10.156;2024-03-22T13:55:54;15.70;91.40
4739;DHT22;2383;48.632;10.156;2024-03-22T13:59:55;16.00;92.30
4739;DHT22;2383;48.632;10.156;2024-03-22T14:03:56;15.70;92.30
4739;DHT22;2383;48.632;10.156;2024-03-22T14:07:58;15.50;93.00
4739;DHT22;2383;48.632;10.156;2024-03-22T14:12:00;16.00;92.60
4739;DHT22;2383;48.632;10.156;2024-03-22T14:16:01;16.30;92.40
4739;DHT22;2383;48.632;10.156;2024-03-22T14:20:03;16.20;92.80
4739;DHT22;2383;48.632;10.156;2024-03-22T14:24:10;16.10;92.20
4739;DHT22;2383;48.632;10.156;2024-03-22T14:28:12;15.80;92.90
4739;DHT22;2383;48.632;10.156;2024-03-22T14:32:13;15.80;92.10
4739;DHT22;2383;48.632;10.156;2024-03-22T14:36:14;15.70;92.60
4739;DHT22;2383;48.632;10.156;2024-03-22T14:40:15;15.60;92.70
4739;DHT22;2383;48.632;10.156;2024-03-22T14:44:17;16.00;92.60
4739;DHT22;2383;48.632;10.156;2024-03-22T14:48:23;15.90;93.40
4739;DHT22;2383;48.632;10.156;2024-03-22T14:52:24;15.90;92.60
4739;DHT22;2383;48.632;10.156;2024-03-22T14:56:25;16.00;93.20
4739;DHT22;2383;48.632;10.156;2024-03-22T15:00:26;15.50;92.90
4739;DHT22;2383;48.632;10.156;2024-03-22T15:04:27;15.40;92.80
4739;DHT22;2383;48.632;10.156;2024-03-22T15:08:29;15.70;92.40
4739;DHT22;2383;48.632;10.156;2024-03-22T15:12:30;15.80;92.40
4739;DHT22;2383;48.632;10.156;2024-03-22T15:16:32;15.90;92.40
4739;DHT22;2383;48.632;10.156;2024-03-22T15:20:34;15.90;92.60
4739;DHT22;2383;48.632;10.156;2024-03-22T15:24:35;15.90;92.80
4739;DHT22;2383;48.632;10.156;2024-03-22T15:28:37;16.00;92.80
4739;DHT22;2383;48.632;10.156;2024-03-22T15:32:38;15.80;92.90
4739;DHT22;2383;48.632;10.156;2024-03-22T15:36:39;15.80;93.00
4739;DHT22;2383;48.632;10.156;2024-03-22T15:40:40;15.70;92.20
4739;DHT22;2383;48.632;10.156;2024-03-22T15:44:41;15.30;90.30
4739;DHT22;2383;48.632;10.156;2024-03-22T15:48:43;15.30;87.50
4739;DHT22;2383;48.632;10.156;2024-03-22T15:52:45;14.90;87.40
4739;DHT22;2383;48.632;10.156;2024-03-22T15:56:46;14.90;86.20
4739;DHT22;2383;48.632;10.156;2024-03-22T16:00:47;14.30;87.10
4739;DHT22;2383;48.632;10.156;2024-03-22T16:04:50;14.20;86.50
4739;DHT22;2383;48.632;10.156;2024-03-22T16:08:51;14.50;87.80
4739;DHT22;2383;48.632;10.156;2024-03-22T16:12:52;14.90;87.80
4739;DHT22;2383;48.632;10.156;2024-03-22T16:16:53;14.70;86.20
4739;DHT22;2383;48.632;10.156;2024-03-22T16:20:54;14.90;85.50
4739;DHT22;2383;48.632;10.156;2024-03-22T16:24:55;14.50;86.00
4739;DHT22;2383;48.632;10.156;2024-03-22T16:28:56;14.50;85.70
4739;DHT22;2383;48.632;10.156;2024-03-22T16:32:58;14.90;85.40
4739;DHT22;2383;48.632;10.156;2024-03-22T16:36:59;15.10;85.50
4739;DHT22;2383;48.632;10.156;2024-03-22T16:41:00;15.30;87.40
4739;DHT22;2383;48.632;10.156;2024-03-22T16:45:01;15.40;89.00
4739;DHT22;2383;48.632;10.156;2024-03-22T16:49:03;15.40;88.90
4739;DHT22;2383;48.632;10.156;2024-03-22T16:53:04;15.30;88.20
4739;DHT22;2383;48.632;10.156;2024-03-22T16:57:05;15.30;89.40
4739;DHT22;2383;48.632;10.156;2024-03-22T17:01:06;15.20;89.80
4739;DHT22;2383;48.632;10.156;2024-03-22T17:05:11;15.10;90.70
4739;DHT22;2383;48.632;10.156;2024-03-22T17:09:12;15.00;90.70
4739;DHT22;2383;48.632;10.156;2024-03-22T17:13:13;14.80;91.10
4739;DHT22;2383;48.632;10.156;2024-03-22T17:17:14;14.80;91.40
4739;DHT22;2383;48.632;10.156;2024-03-22T17:21:17;14.70;91.80
4739;DHT22;2383;48.632;10.156;2024-03-22T17:25:19;14.60;91.60
4739;DHT22;2383;48.632;10.156;2024-03-22T17:29:19;14.50;91.10
4739;DHT22;2383;48.632;10.156;2024-03-22T17:33:21;14.40;91.40
4739;DHT22;2383;48.632;10.156;2024-03-22T17:37:22;14.40;91.90
4739;DHT22;2383;48.632;10.156;2024-03-22T17:41:23;14.30;91.50
4739;DHT22;2383;48.632;10.156;2024-03-22T17:45:24;14.20;91.80
4739;DHT22;2383;48.632;10.156;2024-03-22T17:49:25;14.10;91.90
4739;DHT22;2383;48.632;10.156;2024-03-22T17:53:26;14.10;92.40
4739;DHT22;2383;48.632;10.156;2024-03-22T17:57:28;13.70;90.60
4739;DHT22;2383;48.632;10.156;2024-03-22T18:01:30;13.70;90.90
4739;DHT22;2383;48.632;10.156;2024-03-22T18:05:32;13.50;90.50
4739;DHT22;2383;48.632;10.156;2024-03-22T18:09:33;13.00;90.90
4739;DHT22;2383;48.632;10.156;2024-03-22T18:13:34;13.20;91.10
4739;DHT22;2383;48.632;10.156;2024-03-22T18:17:37;12.70;91.70
4739;DHT22;2383;48.632;10.156;2024-03-22T18:21:39;12.80;92.00
4739;DHT22;2383;48.632;10.156;2024-03-22T18:25:46;13.10;91.90
4739;DHT22;2383;48.632;10.156;2024-03-22T18:29:48;13.10;92.10
4739;DHT22;2383;48.632;10.156;2024-03-22T18:33:49;13.00;92.50
4739;DHT22;2383;48.632;10.156;2024-03-22T18:37:50;13.20;92.50
4739;DHT22;2383;48.632;10.156;2024-03-22T18:41:52;13.40;92.60
4739;DHT22;2383;48.632;10.156;2024-03-22T18:45:53;13.70;92.80
4739;DHT22;2383;48.632;10.156;2024-03-22T18:49:54;13.60;93.20
4739;DHT22;2383;48.632;10.156;2024-03-22T18:53:56;13.50;93.20
4739;DHT22;2383;48.632;10.156;2024-03-22T18:57:59;13.40;93.20
4739;DHT22;2383;48.632;10.156;2024-03-22T19:02:01;13.60;93.70
4739;DHT22;2383;48.632;10.156;2024-03-22T19:06:03;13.20;93.70
4739;DHT22;2383;48.632;10.156;2024-03-22T19:10:08;13.10;93.90
4739;DHT22;2383;48.632;10.156;2024-03-22T19:14:09;13.10;94.10
4739;DHT22;2383;48.632;10.156;2024-03-22T19:18:10;13.00;94.40
4739;DHT22;2383;48.632;10.156;2024-03-22T19:22:12;13.00;94.40
4739;DHT22;2383;48.632;10.156;2024-03-22T19:26:14;13.00;94.50
4739;DHT22;2383;48.632;10.156;2024-03-22T19:30:15;13.00;94.90
4739;DHT22;2383;48.632;10.156;2024-03-22T19:34:17;13.00;94.90
4739;DHT22;2383;48.632;10.156;2024-03-22T19:38:18;12.80;94.80
4739;DHT22;2383;48.632;10.156;2024-03-22T19:42:20;12.70;95.00
4739;DHT22;2383;48.632;10.156;2024-03-22T19:46:21;12.60;94.80
4739;DHT22;2383;48.632;10.156;2024-03-22T19:50:22;12.40;95.10
4739;DHT22;2383;48.632;10.156;2024-03-22T19:54:23;12.30;95.40
4739;DHT22;2383;48.632;10.156;2024-03-22T19:58:24;12.20;95.60
4739;DHT22;2383;48.632;10.156;2024-03-22T20:02:27;12.10;95.90
4739;DHT22;2383;48.632;10.156;2024-03-22T20:06:28;12.00;96.10
4739;DHT22;2383;48.632;10.156;2024-03-22T20:10:30;11.80;95.80
4739;DHT22;2383;48.632;10.156;2024-03-22T20:14:32;11.60;96.00
4739;DHT22;2383;48.632;10.156;2024-03-22T20:18:34;11.60;96.00
4739;DHT22;2383;48.632;10.156;2024-03-22T20:22:35;11.50;96.10
4739;DHT22;2383;48.632;10.156;2024-03-22T20:26:36;11.50;96.00
4739;DHT22;2383;48.632;10.156;2024-03-22T20:30:38;11.30;96.10
4739;DHT22;2383;48.632;10.156;2024-03-22T20:34:39;11.20;96.20
